OIBS  Sirri Island  Airport

Iran

Add Bookmark
ICAO OIBS
IATA SXI
Type Airport
Status Operational
Latitude
25° 54' 32" N
25.908899
Longitude
54° 32' 21" E
54.539398
Local (GMT +3.5 ) UTC
Sep 30, 2016 03:10 pm Sep 30, 2016 11:40
Sunrise-Sunset Local UTC
Begin Civil Twilight 05:19 am 01:49
Sunrise 05:42 am 02:12
Sunset 05:40 pm 14:10
End Civil Twilight 06:03 pm 14:33
VFR
VFR
MVFR
MVFR
IFR
IFR
LIFR
LIFR
Unknown
Unavailable

Current Weather

METAR Observed VFR
OIBS 301100Z 25014KT CAVOK 35/25 Q1002 Fri, Sep 30, 2016 @ 11:00 UTC
(40 Minutes ago)
Visual Flight Rules
Wind Visibility Conditions
250° at 14 knots (26 kph) 10 km or more
  • No significant weather
Temperatures Readings Precipitation
Current Temp
35°C
95°F
Dewpoint
25°C
77°F
Heat Index
43°C
110°
Humidity 56%
Altimeter 29.59" Hg
Sea Level Pressure 1,002 mb
Field Elevation
14 m
46 ft
None Recorded

Additional weather within a 92.6km radius of OIBS

Map ICAO Location
OIBA 49.4km E (094°)
OIBL 74.8km N/NE (022°)
OIBK 88.5km NW (321°)
VFR
VFR
MVFR
MVFR
IFR
IFR
LIFR
LIFR
Unknown
Unavailable
-
-

CheckWX.com is intended as a tool to help pilots better visualize weather data. It is not intended as a substitute for an official weather briefing obtained from a Flight Service Station. CheckWX.com does not meet the FAA requirements for an official pre-flight weather briefing. Therefore, it's important that pilots still call and obtain an official FSS pre-flight weather briefing.

© 2007-2016 CheckWX.com
11:40:08 UTC